createdAt,value
2023-05-03T00:02:24.691Z,2.11
2023-05-03T00:04:54.770Z,2.02
2023-05-03T00:07:23.251Z,1.82
2023-05-03T00:09:50.361Z,1.89
2023-05-03T00:12:17.422Z,2.30
2023-05-03T00:14:46.299Z,1.93
2023-05-03T00:17:13.609Z,1.94
2023-05-03T00:19:40.791Z,2.00
2023-05-03T00:22:07.968Z,1.69
2023-05-03T00:24:35.319Z,1.73
2023-05-03T00:27:03.756Z,1.60
2023-05-03T00:29:30.490Z,1.72
2023-05-03T00:31:57.489Z,1.91
2023-05-03T00:34:24.573Z,1.93
2023-05-03T00:36:51.736Z,1.88
2023-05-03T00:39:18.634Z,1.71
2023-05-03T00:41:45.507Z,1.51
2023-05-03T00:44:12.417Z,1.62
2023-05-03T00:46:39.403Z,1.54
2023-05-03T00:49:06.701Z,1.57
2023-05-03T00:51:34.117Z,1.44
2023-05-03T00:54:01.212Z,1.67
2023-05-03T00:56:31.102Z,1.46
2023-05-03T00:59:00.896Z,1.36
2023-05-03T01:01:29.399Z,1.50
2023-05-03T01:03:57.293Z,1.56
2023-05-03T01:06:38.455Z,1.73
2023-05-03T01:09:11.575Z,1.59
2023-05-03T01:11:57.098Z,1.33
2023-05-03T01:14:35.869Z,1.23
2023-05-03T01:17:09.232Z,1.19
2023-05-03T01:19:51.820Z,1.15
2023-05-03T01:22:41.877Z,1.23
2023-05-03T01:25:11.314Z,1.24
2023-05-03T01:27:39.300Z,1.62
2023-05-03T01:30:08.314Z,1.68
2023-05-03T01:32:53.661Z,1.64
2023-05-03T01:35:31.429Z,1.48
2023-05-03T01:37:59.342Z,1.59
2023-05-03T01:40:28.400Z,1.62
2023-05-03T01:42:56.976Z,1.63
2023-05-03T01:45:23.985Z,1.71
2023-05-03T01:47:51.037Z,2.02
2023-05-03T01:50:18.141Z,2.18
2023-05-03T01:52:45.535Z,2.22
2023-05-03T01:55:12.461Z,2.39
2023-05-03T01:57:42.721Z,2.44
2023-05-03T02:00:12.520Z,2.48
2023-05-03T02:02:39.631Z,2.48
2023-05-03T02:05:06.930Z,2.75
2023-05-03T02:07:33.908Z,2.81
2023-05-03T02:10:01.116Z,2.84
2023-05-03T02:12:28.233Z,2.98
2023-05-03T02:14:55.379Z,3.10
2023-05-03T02:17:26.757Z,3.35
2023-05-03T02:19:53.906Z,3.49
2023-05-03T02:22:20.717Z,3.75
2023-05-03T02:24:47.734Z,3.79
2023-05-03T02:27:15.294Z,3.81
2023-05-03T02:29:42.183Z,3.96
2023-05-03T02:32:09.115Z,4.08
2023-05-03T02:34:36.517Z,4.13
2023-05-03T02:37:03.495Z,4.24
2023-05-03T02:39:30.456Z,4.37
2023-05-03T02:41:57.454Z,4.32
2023-05-03T02:44:24.602Z,4.44
2023-05-03T02:46:51.674Z,4.36
2023-05-03T02:49:18.621Z,4.14
2023-05-03T02:51:46.118Z,4.31
2023-05-03T02:54:13.033Z,4.40
2023-05-03T02:56:39.848Z,4.46
2023-05-03T02:59:06.908Z,4.49
2023-05-03T03:01:34.608Z,4.87
2023-05-03T03:04:01.721Z,4.64
2023-05-03T03:06:28.940Z,4.65
2023-05-03T03:08:55.754Z,4.55
2023-05-03T03:11:24.178Z,4.46
2023-05-03T03:13:51.001Z,4.44
2023-05-03T03:16:18.126Z,4.61
2023-05-03T03:18:46.158Z,4.59
2023-05-03T03:21:12.907Z,4.59
2023-05-03T03:23:39.772Z,4.84
2023-05-03T03:26:06.599Z,4.85
2023-05-03T03:28:33.638Z,4.93
2023-05-03T03:31:00.606Z,4.96
2023-05-03T03:33:27.761Z,4.90
2023-05-03T03:35:57.090Z,4.73
2023-05-03T03:38:24.692Z,4.85
2023-05-03T03:40:53.059Z,4.96
2023-05-03T03:43:20.001Z,5.15
2023-05-03T03:45:49.851Z,5.19
2023-05-03T03:48:19.963Z,5.16
2023-05-03T03:50:49.712Z,5.39
2023-05-03T03:53:16.698Z,5.25
2023-05-03T03:55:43.611Z,4.98
2023-05-03T03:58:10.492Z,5.03
2023-05-03T04:00:37.697Z,5.06
2023-05-03T04:03:07.820Z,5.15
2023-05-03T04:05:38.030Z,5.28
2023-05-03T04:08:07.885Z,5.59
2023-05-03T04:10:34.822Z,5.55
2023-05-03T04:13:01.982Z,5.83
2023-05-03T04:15:29.012Z,5.72
2023-05-03T04:17:56.125Z,5.93
2023-05-03T04:20:23.807Z,5.65
2023-05-03T04:22:50.786Z,5.79
2023-05-03T04:25:18.513Z,5.79
2023-05-03T04:27:46.295Z,5.56
2023-05-03T04:30:15.289Z,5.64
2023-05-03T04:32:43.011Z,5.93
2023-05-03T04:35:12.812Z,6.28
2023-05-03T04:37:42.158Z,6.42
2023-05-03T04:40:12.815Z,6.98
2023-05-03T04:42:39.767Z,6.91
2023-05-03T04:45:08.089Z,6.78
2023-05-03T04:47:35.028Z,6.94
2023-05-03T04:50:02.546Z,7.07
2023-05-03T04:52:30.056Z,7.43
2023-05-03T04:54:57.204Z,7.66
2023-05-03T04:57:24.042Z,7.67
2023-05-03T04:59:51.345Z,7.91
2023-05-03T05:02:18.214Z,8.08
2023-05-03T05:04:45.146Z,8.45
2023-05-03T05:07:13.503Z,8.05
2023-05-03T05:09:40.561Z,8.26
2023-05-03T05:12:07.922Z,8.50
2023-05-03T05:14:37.806Z,8.76
2023-05-03T05:17:04.845Z,9.00
2023-05-03T05:19:31.836Z,9.28
2023-05-03T05:21:58.739Z,9.57
2023-05-03T05:24:26.094Z,9.72
2023-05-03T05:26:53.324Z,9.90
2023-05-03T05:29:20.236Z,10.12
2023-05-03T05:31:47.384Z,10.20
2023-05-03T05:34:14.486Z,10.39
2023-05-03T05:36:41.378Z,10.57
2023-05-03T05:39:08.444Z,10.82
2023-05-03T05:41:36.830Z,10.98
2023-05-03T05:44:03.855Z,11.17
2023-05-03T05:46:30.897Z,11.49
2023-05-03T05:49:00.387Z,11.69
2023-05-03T05:51:28.174Z,11.98
2023-05-03T05:53:55.288Z,11.95
2023-05-03T05:56:22.348Z,12.19
2023-05-03T05:58:49.485Z,12.39
2023-05-03T06:01:16.532Z,12.68
2023-05-03T06:03:43.568Z,12.93
2023-05-03T06:06:10.359Z,12.86
2023-05-03T06:08:37.490Z,13.22
2023-05-03T06:11:04.434Z,13.49
2023-05-03T06:13:33.444Z,13.62
2023-05-03T06:16:00.381Z,13.75
2023-05-03T06:18:27.183Z,13.90
2023-05-03T06:20:54.188Z,14.09
2023-05-03T06:23:21.169Z,13.88
2023-05-03T06:25:48.513Z,13.78
2023-05-03T06:28:15.351Z,13.99
2023-05-03T06:30:42.368Z,14.06
2023-05-03T06:33:12.998Z,14.15
2023-05-03T06:35:40.152Z,14.42
2023-05-03T06:38:07.713Z,14.45
2023-05-03T06:40:35.978Z,14.61
2023-05-03T06:43:05.093Z,15.30
2023-05-03T06:45:32.152Z,15.65
2023-05-03T06:47:59.464Z,15.93
2023-05-03T06:50:26.440Z,16.39
2023-05-03T06:52:56.007Z,17.26
2023-05-03T06:55:23.092Z,17.86
2023-05-03T06:57:49.976Z,18.23
2023-05-03T07:00:17.152Z,19.28
2023-05-03T07:02:44.635Z,19.61
2023-05-03T07:05:14.665Z,19.62
2023-05-03T07:07:41.482Z,19.88
2023-05-03T07:10:08.619Z,20.73
2023-05-03T07:12:35.725Z,21.29
2023-05-03T07:15:02.459Z,20.86
2023-05-03T07:17:29.448Z,21.30
2023-05-03T07:19:57.363Z,22.00
2023-05-03T07:22:28.144Z,23.39
2023-05-03T07:24:56.067Z,24.99
2023-05-03T07:27:23.087Z,25.94
2023-05-03T07:29:50.397Z,27.46
2023-05-03T07:32:17.506Z,30.95
2023-05-03T07:34:44.368Z,28.92
2023-05-03T07:37:14.014Z,26.34
2023-05-03T07:39:41.752Z,25.84
2023-05-03T07:42:08.822Z,26.25
2023-05-03T07:44:35.972Z,28.61
2023-05-03T07:47:03.307Z,27.13
2023-05-03T07:49:31.266Z,26.80
2023-05-03T07:51:59.135Z,25.30
2023-05-03T07:54:26.076Z,22.65
2023-05-03T07:56:55.021Z,26.41
2023-05-03T07:59:22.618Z,25.49
2023-05-03T08:01:49.680Z,22.58
2023-05-03T08:04:16.563Z,20.97
2023-05-03T08:06:43.847Z,19.35
2023-05-03T08:09:11.911Z,18.44
2023-05-03T08:11:38.852Z,17.91
2023-05-03T08:14:06.497Z,17.91
2023-05-03T08:16:33.586Z,17.72
2023-05-03T08:19:00.642Z,18.15
2023-05-03T08:21:31.781Z,18.06
2023-05-03T08:23:58.654Z,18.44
2023-05-03T08:26:28.779Z,18.45
2023-05-03T08:28:55.686Z,18.98
2023-05-03T08:31:22.692Z,19.11
2023-05-03T08:33:50.013Z,19.43
2023-05-03T08:36:17.279Z,19.53
2023-05-03T08:38:44.284Z,19.68
2023-05-03T08:41:32.047Z,20.26
2023-05-03T08:44:01.782Z,20.72
2023-05-03T08:46:29.329Z,23.84
2023-05-03T08:48:57.101Z,31.75
2023-05-03T08:51:25.638Z,38.10
2023-05-03T08:53:52.874Z,41.49
2023-05-03T08:56:44.413Z,42.66
2023-05-03T08:59:12.006Z,44.07
2023-05-03T09:01:42.322Z,41.75
2023-05-03T09:04:11.175Z,44.10
2023-05-03T09:06:39.031Z,42.42
2023-05-03T09:09:08.846Z,35.97
2023-05-03T09:11:38.058Z,30.80
2023-05-03T09:14:15.998Z,27.14
2023-05-03T09:16:46.708Z,25.80
2023-05-03T09:19:15.295Z,24.39
2023-05-03T09:21:44.511Z,23.09
2023-05-03T09:24:23.843Z,23.49
2023-05-03T09:26:52.187Z,22.90
2023-05-03T09:29:37.407Z,22.63
2023-05-03T09:32:06.426Z,22.75
2023-05-03T09:34:37.745Z,22.07
2023-05-03T09:37:07.680Z,24.67
2023-05-03T09:39:37.015Z,25.19
2023-05-03T09:42:17.871Z,24.72
2023-05-03T09:44:54.204Z,25.22
2023-05-03T09:47:24.810Z,26.16
2023-05-03T09:49:52.058Z,28.83
2023-05-03T09:52:20.072Z,36.31
2023-05-03T09:54:47.453Z,40.12
2023-05-03T09:57:15.593Z,39.00
2023-05-03T09:59:45.493Z,36.92
2023-05-03T10:02:12.608Z,35.04
2023-05-03T10:04:52.097Z,31.86
2023-05-03T10:07:23.472Z,28.63
2023-05-03T10:09:51.373Z,27.14
2023-05-03T10:12:19.901Z,24.90
2023-05-03T10:14:48.857Z,24.14
2023-05-03T10:17:47.161Z,23.71
2023-05-03T10:20:39.080Z,23.34
2023-05-03T10:23:06.700Z,23.74
2023-05-03T10:25:35.976Z,24.82
2023-05-03T10:28:04.518Z,25.13
2023-05-03T10:30:32.756Z,24.79
2023-05-03T10:33:20.619Z,24.77
2023-05-03T10:35:54.709Z,24.14
2023-05-03T10:38:26.297Z,24.54
2023-05-03T10:40:55.486Z,25.39
2023-05-03T10:43:34.489Z,29.99
2023-05-03T10:46:06.948Z,31.81
2023-05-03T10:48:34.907Z,35.23
2023-05-03T10:51:37.465Z,35.20
2023-05-03T10:54:04.766Z,35.48
2023-05-03T10:56:31.691Z,40.66
2023-05-03T10:58:59.396Z,44.74
2023-05-03T11:01:27.633Z,46.81
2023-05-03T11:04:13.793Z,44.94
2023-05-03T11:06:46.356Z,38.41
2023-05-03T11:09:15.074Z,35.74
2023-05-03T11:11:42.894Z,31.84
2023-05-03T11:14:11.780Z,29.21
2023-05-03T11:16:47.744Z,27.55
2023-05-03T11:19:15.255Z,26.70
2023-05-03T11:21:43.439Z,25.71
2023-05-03T11:24:10.641Z,25.16
2023-05-03T11:26:40.230Z,26.19
2023-05-03T11:29:10.878Z,31.15
2023-05-03T11:31:37.834Z,29.62
2023-05-03T11:34:06.803Z,26.70
2023-05-03T11:36:34.358Z,24.52
2023-05-03T11:39:01.473Z,23.54
2023-05-03T11:41:28.649Z,22.10
2023-05-03T11:44:07.745Z,22.22
2023-05-03T11:46:42.998Z,21.83
2023-05-03T11:49:10.492Z,27.15
2023-05-03T11:51:37.814Z,27.22
2023-05-03T11:54:21.132Z,30.19
2023-05-03T11:57:01.217Z,31.23
2023-05-03T11:59:36.187Z,29.76
2023-05-03T12:02:05.433Z,29.14
2023-05-03T12:04:33.140Z,27.79
2023-05-03T12:07:00.937Z,27.67
2023-05-03T12:09:32.329Z,25.48
2023-05-03T12:12:02.210Z,24.63
2023-05-03T12:14:50.699Z,24.74
2023-05-03T12:17:44.318Z,24.90
2023-05-03T12:22:52.906Z,19.63
2023-05-03T12:25:25.920Z,21.03
2023-05-03T12:28:15.017Z,21.93
2023-05-03T12:30:45.362Z,21.58
2023-05-03T12:33:15.141Z,22.16
2023-05-03T12:35:47.812Z,22.47
2023-05-03T12:38:17.335Z,21.90
2023-05-03T12:40:47.828Z,21.85
2023-05-03T12:43:15.369Z,20.32
2023-05-03T12:45:46.588Z,20.77
2023-05-03T12:48:17.324Z,20.14
2023-05-03T12:50:45.528Z,20.19
2023-05-03T12:53:16.968Z,20.45
2023-05-03T12:55:48.243Z,20.65
2023-05-03T13:01:37.140Z,20.89
2023-05-03T13:03:43.101Z,21.25
2023-05-03T13:06:14.494Z,21.08
2023-05-03T13:11:12.900Z,20.61
2023-05-03T13:13:40.379Z,20.79
2023-05-03T13:16:08.152Z,20.40
2023-05-03T13:18:35.602Z,20.38
2023-05-03T13:21:02.408Z,20.13
2023-05-03T13:23:34.588Z,19.56
2023-05-03T13:26:01.587Z,19.16
2023-05-03T13:28:28.758Z,18.98
2023-05-03T13:30:55.869Z,18.87
2023-05-03T13:33:22.916Z,18.99
2023-05-03T13:35:49.945Z,18.90
2023-05-03T13:38:19.567Z,18.56
2023-05-03T13:40:47.258Z,18.61
2023-05-03T13:43:14.225Z,18.72
2023-05-03T13:45:43.722Z,18.77
2023-05-03T13:48:18.135Z,17.94
2023-05-03T13:50:45.811Z,17.89
2023-05-03T13:53:13.370Z,18.32
2023-05-03T13:55:40.411Z,18.73
2023-05-03T13:58:07.370Z,18.66
2023-05-03T14:00:34.537Z,18.38
2023-05-03T14:03:01.950Z,18.00
2023-05-03T14:05:29.184Z,18.18
2023-05-03T14:07:57.096Z,18.22
2023-05-03T14:10:24.401Z,18.50
2023-05-03T14:12:52.363Z,18.44
2023-05-03T14:15:19.412Z,18.16
2023-05-03T14:17:49.824Z,17.96
2023-05-03T14:20:18.000Z,18.30
2023-05-03T14:22:47.805Z,18.12
2023-05-03T14:25:14.727Z,18.05
2023-05-03T14:27:41.713Z,17.64
2023-05-03T14:30:12.973Z,17.48
2023-05-03T14:32:39.982Z,17.78
2023-05-03T14:35:08.212Z,18.00
2023-05-03T14:37:35.199Z,17.88
2023-05-03T14:40:02.420Z,17.46
2023-05-03T14:42:33.306Z,16.55
2023-05-03T14:45:00.647Z,16.33
2023-05-03T14:47:27.705Z,16.63
2023-05-03T14:49:54.769Z,16.69
2023-05-03T14:52:21.780Z,16.21
2023-05-03T14:54:48.602Z,16.16
2023-05-03T14:57:15.911Z,16.31
2023-05-03T14:59:43.021Z,16.34
2023-05-03T15:02:10.450Z,16.43
2023-05-03T15:04:40.640Z,16.44
2023-05-03T15:07:09.443Z,16.64
2023-05-03T15:09:38.344Z,16.71
2023-05-03T15:12:05.528Z,16.56
2023-05-03T15:14:35.048Z,16.93
2023-05-03T15:17:02.150Z,16.77
2023-05-03T15:19:29.535Z,16.66
2023-05-03T15:21:56.591Z,16.37
2023-05-03T15:24:23.792Z,16.56
2023-05-03T15:26:51.936Z,16.49
2023-05-03T15:29:18.774Z,16.46
2023-05-03T15:31:47.321Z,16.45
2023-05-03T15:34:14.370Z,16.33
2023-05-03T15:36:41.336Z,16.13
2023-05-03T15:39:09.518Z,16.06
2023-05-03T15:41:39.398Z,16.26
2023-05-03T15:44:08.286Z,16.06
2023-05-03T15:46:35.567Z,15.92
2023-05-03T15:49:02.830Z,15.93
2023-05-03T15:51:29.795Z,15.83
2023-05-03T15:53:56.824Z,15.83
2023-05-03T15:56:27.956Z,15.65
2023-05-03T15:58:55.001Z,15.64
2023-05-03T16:01:21.832Z,15.41
2023-05-03T16:03:49.174Z,15.39
2023-05-03T16:06:19.129Z,15.57
2023-05-03T16:08:46.289Z,15.25
2023-05-03T16:11:13.702Z,14.73
2023-05-03T16:13:40.719Z,14.84
2023-05-03T16:16:07.928Z,15.16
2023-05-03T16:18:35.442Z,15.13
2023-05-03T16:21:03.122Z,14.90
2023-05-03T16:23:30.104Z,15.01
2023-05-03T16:25:57.324Z,15.00
2023-05-03T16:28:24.503Z,14.75
2023-05-03T16:30:53.317Z,14.82
2023-05-03T16:33:20.588Z,14.76
2023-05-03T16:35:48.900Z,14.66
2023-05-03T16:38:15.773Z,14.50
2023-05-03T16:40:43.560Z,14.31
2023-05-03T16:43:10.777Z,14.26
2023-05-03T16:45:37.991Z,14.14
2023-05-03T16:48:06.791Z,14.15
2023-05-03T16:50:38.133Z,14.23
2023-05-03T16:53:04.988Z,14.21
2023-05-03T16:55:31.982Z,14.08
2023-05-03T16:57:58.775Z,13.96
2023-05-03T17:00:26.198Z,13.93
2023-05-03T17:02:53.535Z,13.69
2023-05-03T17:05:20.595Z,13.65
2023-05-03T17:07:47.525Z,13.59
2023-05-03T17:10:14.754Z,13.62
2023-05-03T17:12:48.030Z,13.61
2023-05-03T17:15:20.705Z,13.46
2023-05-03T17:17:52.260Z,13.41
2023-05-03T17:20:19.997Z,13.14
2023-05-03T17:22:46.966Z,12.77
2023-05-03T17:25:13.879Z,12.85
2023-05-03T17:27:44.255Z,12.65
2023-05-03T17:30:11.835Z,12.61
2023-05-03T17:32:38.876Z,12.52
2023-05-03T17:35:07.163Z,12.51
2023-05-03T17:37:34.222Z,12.30
2023-05-03T17:40:01.202Z,12.14
2023-05-03T17:42:28.413Z,11.84
2023-05-03T17:44:55.869Z,11.68
2023-05-03T17:47:25.187Z,11.66
2023-05-03T17:49:52.516Z,11.63
2023-05-03T17:52:19.641Z,11.44
2023-05-03T17:54:46.792Z,11.30
2023-05-03T17:57:13.743Z,11.19
2023-05-03T17:59:41.147Z,11.08
2023-05-03T18:02:08.197Z,10.97
2023-05-03T18:04:38.645Z,10.88
2023-05-03T18:07:06.023Z,10.87
2023-05-03T18:09:33.613Z,10.64
2023-05-03T18:12:02.452Z,10.68
2023-05-03T18:14:29.488Z,10.42
2023-05-03T18:16:56.352Z,10.40
2023-05-03T18:19:25.615Z,10.33
2023-05-03T18:21:52.658Z,10.21
2023-05-03T18:24:19.472Z,10.01
2023-05-03T18:26:47.503Z,9.96
2023-05-03T18:29:14.425Z,9.85
2023-05-03T18:31:41.915Z,9.72
2023-05-03T18:34:08.863Z,9.64
2023-05-03T18:36:35.779Z,9.55
2023-05-03T18:39:05.093Z,9.46
2023-05-03T18:41:32.219Z,9.17
2023-05-03T18:43:59.079Z,9.06
2023-05-03T18:46:26.219Z,8.97
2023-05-03T18:48:53.833Z,8.81
2023-05-03T18:51:20.681Z,8.70
2023-05-03T18:53:47.497Z,8.62
2023-05-03T18:56:14.643Z,8.60
2023-05-03T18:58:41.551Z,8.41
2023-05-03T19:01:08.722Z,8.31
2023-05-03T19:03:36.390Z,8.23
2023-05-03T19:06:04.922Z,8.21
2023-05-03T19:08:34.113Z,8.19
2023-05-03T19:11:13.062Z,8.09
2023-05-03T19:13:42.705Z,7.99
2023-05-03T19:16:09.682Z,7.95
2023-05-03T19:18:42.472Z,8.02
2023-05-03T19:21:09.790Z,7.72
2023-05-03T19:23:36.866Z,7.87
2023-05-03T19:26:04.297Z,7.77
2023-05-03T19:28:32.208Z,7.60
2023-05-03T19:31:03.333Z,7.55
2023-05-03T19:33:30.276Z,7.54
2023-05-03T19:35:57.489Z,7.39
2023-05-03T19:38:24.494Z,7.40
2023-05-03T19:40:58.198Z,7.44
2023-05-03T19:43:25.482Z,7.35
2023-05-03T19:45:53.202Z,6.87
2023-05-03T19:48:20.236Z,7.11
2023-05-03T19:50:47.912Z,6.86
2023-05-03T19:53:15.023Z,6.68
2023-05-03T19:55:42.158Z,6.58
2023-05-03T19:58:12.433Z,6.57
2023-05-03T20:00:39.349Z,6.43
2023-05-03T20:03:09.256Z,6.41
2023-05-03T20:05:36.359Z,6.21
2023-05-03T20:08:03.437Z,6.15
2023-05-03T20:10:35.822Z,6.29
2023-05-03T20:13:04.638Z,6.23
2023-05-03T20:15:32.229Z,6.01
2023-05-03T20:17:59.219Z,6.01
2023-05-03T20:20:26.295Z,5.83
2023-05-03T20:22:53.359Z,5.89
2023-05-03T20:25:24.059Z,5.93
2023-05-03T20:27:50.970Z,5.74
2023-05-03T20:30:18.191Z,5.64
2023-05-03T20:32:45.033Z,5.68
2023-05-03T20:35:12.577Z,5.51
2023-05-03T20:37:40.204Z,5.41
2023-05-03T20:40:08.149Z,5.00
2023-05-03T20:42:36.856Z,5.59
2023-05-03T20:45:04.292Z,5.40
2023-05-03T20:47:31.143Z,5.44
2023-05-03T20:49:58.117Z,5.32
2023-05-03T20:52:25.012Z,5.43
2023-05-03T20:54:52.380Z,5.16
2023-05-03T20:57:19.347Z,5.23
2023-05-03T20:59:46.153Z,5.15
2023-05-03T21:02:13.175Z,5.04
2023-05-03T21:04:40.444Z,5.15
2023-05-03T21:07:07.465Z,5.04
2023-05-03T21:09:34.413Z,5.00
2023-05-03T21:12:01.893Z,4.98
2023-05-03T21:14:29.184Z,4.89
2023-05-03T21:16:56.397Z,4.80
2023-05-03T21:19:23.506Z,4.82
2023-05-03T21:21:51.084Z,4.79
2023-05-03T21:24:17.967Z,4.74
2023-05-03T21:26:44.929Z,4.78
2023-05-03T21:29:14.637Z,4.80
2023-05-03T21:31:41.817Z,4.76
2023-05-03T21:34:08.938Z,4.62
2023-05-03T21:36:35.946Z,4.67
2023-05-03T21:39:02.751Z,4.61
2023-05-03T21:41:29.848Z,4.59
2023-05-03T21:43:56.794Z,4.59
2023-05-03T21:46:23.734Z,4.56
2023-05-03T21:48:50.797Z,4.44
2023-05-03T21:51:25.017Z,4.51
2023-05-03T21:53:52.290Z,4.29
2023-05-03T21:56:19.202Z,4.40
2023-05-03T21:58:46.075Z,4.28
2023-05-03T22:01:20.558Z,4.25
2023-05-03T22:03:49.757Z,4.30
2023-05-03T22:06:16.809Z,4.30
2023-05-03T22:08:43.763Z,4.29
2023-05-03T22:11:11.722Z,3.96
2023-05-03T22:13:49.618Z,3.74
2023-05-03T22:16:21.970Z,3.73
2023-05-03T22:18:49.312Z,3.76
2023-05-03T22:21:16.725Z,3.79
2023-05-03T22:23:43.816Z,3.81
2023-05-03T22:26:10.805Z,3.81
2023-05-03T22:28:37.727Z,3.84
2023-05-03T22:31:04.608Z,4.15
2023-05-03T22:33:31.632Z,4.13
2023-05-03T22:35:58.676Z,3.92
2023-05-03T22:38:25.681Z,3.81
2023-05-03T22:40:52.669Z,3.80
2023-05-03T22:43:19.617Z,3.86
2023-05-03T22:45:46.438Z,3.79
2023-05-03T22:48:13.855Z,3.77
2023-05-03T22:50:40.790Z,3.70
2023-05-03T22:53:07.751Z,3.70
2023-05-03T22:55:34.722Z,3.64
2023-05-03T22:58:01.749Z,3.71
2023-05-03T23:00:28.777Z,3.63
2023-05-03T23:02:55.856Z,3.74
2023-05-03T23:05:22.899Z,3.68
2023-05-03T23:07:49.854Z,3.80
2023-05-03T23:10:16.999Z,3.56
2023-05-03T23:12:43.975Z,3.61
2023-05-03T23:15:11.500Z,3.53
2023-05-03T23:17:38.458Z,3.62
2023-05-03T23:20:06.075Z,3.70
2023-05-03T23:22:32.980Z,3.58
2023-05-03T23:25:00.277Z,3.66
2023-05-03T23:27:27.440Z,3.50
2023-05-03T23:29:55.022Z,3.53
2023-05-03T23:32:22.700Z,3.50
2023-05-03T23:34:49.978Z,3.48
2023-05-03T23:37:16.952Z,3.46
2023-05-03T23:39:44.943Z,3.39
2023-05-03T23:42:13.192Z,3.42
2023-05-03T23:44:53.777Z,3.37
2023-05-03T23:47:21.740Z,3.37
2023-05-03T23:49:48.576Z,3.31
2023-05-03T23:52:17.181Z,3.27
2023-05-03T23:54:44.077Z,3.31
2023-05-03T23:57:11.633Z,3.25
2023-05-03T23:59:38.529Z,3.26
